sensor_id;sensor_type;location;lat;lon;timestamp;temperature;humidity
43697;DHT22;29301;47.620;19.560;2022-09-14T00:01:39;15.90;92.50
43697;DHT22;29301;47.620;19.560;2022-09-14T00:04:10;16.00;92.20
43697;DHT22;29301;47.620;19.560;2022-09-14T00:06:36;16.10;91.80
43697;DHT22;29301;47.620;19.560;2022-09-14T00:09:03;16.10;91.40
43697;DHT22;29301;47.620;19.560;2022-09-14T00:11:35;15.80;92.10
43697;DHT22;29301;47.620;19.560;2022-09-14T00:14:01;15.70;92.80
43697;DHT22;29301;47.620;19.560;2022-09-14T00:16:30;15.60;93.30
43697;DHT22;29301;47.620;19.560;2022-09-14T00:18:59;15.60;93.60
43697;DHT22;29301;47.620;19.560;2022-09-14T00:21:27;15.60;93.60
43697;DHT22;29301;47.620;19.560;2022-09-14T00:23:53;15.60;94.10
43697;DHT22;29301;47.620;19.560;2022-09-14T00:26:20;15.40;94.20
43697;DHT22;29301;47.620;19.560;2022-09-14T00:28:52;15.20;94.70
43697;DHT22;29301;47.620;19.560;2022-09-14T00:31:19;15.20;95.00
43697;DHT22;29301;47.620;19.560;2022-09-14T00:33:46;15.30;95.30
43697;DHT22;29301;47.620;19.560;2022-09-14T00:36:21;15.30;95.20
43697;DHT22;29301;47.620;19.560;2022-09-14T00:38:47;15.40;95.20
43697;DHT22;29301;47.620;19.560;2022-09-14T00:41:25;15.40;95.10
43697;DHT22;29301;47.620;19.560;2022-09-14T00:46:31;15.50;94.70
43697;DHT22;29301;47.620;19.560;2022-09-14T00:49:02;15.30;94.70
43697;DHT22;29301;47.620;19.560;2022-09-14T00:51:30;15.40;94.50
43697;DHT22;29301;47.620;19.560;2022-09-14T00:53:57;15.50;94.20
43697;DHT22;29301;47.620;19.560;2022-09-14T00:56:24;15.40;94.10
43697;DHT22;29301;47.620;19.560;2022-09-14T00:58:50;15.40;94.20
43697;DHT22;29301;47.620;19.560;2022-09-14T01:01:18;15.20;94.50
43697;DHT22;29301;47.620;19.560;2022-09-14T01:03:43;15.10;95.10
43697;DHT22;29301;47.620;19.560;2022-09-14T01:06:18;15.00;95.50
43697;DHT22;29301;47.620;19.560;2022-09-14T01:11:46;15.20;94.80
43697;DHT22;29301;47.620;19.560;2022-09-14T01:17:20;15.40;94.30
43697;DHT22;29301;47.620;19.560;2022-09-14T01:22:57;15.10;94.50
43697;DHT22;29301;47.620;19.560;2022-09-14T01:28:40;14.30;97.20
43697;DHT22;29301;47.620;19.560;2022-09-14T01:31:58;14.30;98.00
43697;DHT22;29301;47.620;19.560;2022-09-14T01:34:44;14.50;97.70
43697;DHT22;29301;47.620;19.560;2022-09-14T01:37:34;14.20;98.40
43697;DHT22;29301;47.620;19.560;2022-09-14T01:40:06;13.90;99.50
43697;DHT22;29301;47.620;19.560;2022-09-14T01:42:33;13.70;99.90
43697;DHT22;29301;47.620;19.560;2022-09-14T01:45:02;13.70;99.90
43697;DHT22;29301;47.620;19.560;2022-09-14T01:47:41;13.80;99.90
43697;DHT22;29301;47.620;19.560;2022-09-14T01:50:13;14.00;99.90
43697;DHT22;29301;47.620;19.560;2022-09-14T01:52:46;14.30;99.50
43697;DHT22;29301;47.620;19.560;2022-09-14T01:55:21;14.40;98.30
43697;DHT22;29301;47.620;19.560;2022-09-14T01:58:03;14.60;97.40
43697;DHT22;29301;47.620;19.560;2022-09-14T02:00:32;14.60;97.00
43697;DHT22;29301;47.620;19.560;2022-09-14T02:03:04;14.70;96.50
43697;DHT22;29301;47.620;19.560;2022-09-14T02:05:53;14.70;96.40
43697;DHT22;29301;47.620;19.560;2022-09-14T02:08:21;14.70;96.40
43697;DHT22;29301;47.620;19.560;2022-09-14T02:10:47;14.70;96.10
43697;DHT22;29301;47.620;19.560;2022-09-14T02:13:13;14.70;96.20
43697;DHT22;29301;47.620;19.560;2022-09-14T02:15:39;14.70;96.20
43697;DHT22;29301;47.620;19.560;2022-09-14T02:18:04;14.60;96.20
43697;DHT22;29301;47.620;19.560;2022-09-14T02:20:38;14.60;96.40
43697;DHT22;29301;47.620;19.560;2022-09-14T02:23:06;14.50;96.60
43697;DHT22;29301;47.620;19.560;2022-09-14T02:25:32;14.50;96.60
43697;DHT22;29301;47.620;19.560;2022-09-14T02:27:57;14.60;96.20
43697;DHT22;29301;47.620;19.560;2022-09-14T02:30:23;14.70;95.50
43697;DHT22;29301;47.620;19.560;2022-09-14T02:33:17;14.60;95.30
43697;DHT22;29301;47.620;19.560;2022-09-14T02:35:54;14.70;95.20
43697;DHT22;29301;47.620;19.560;2022-09-14T02:38:36;14.60;95.20
43697;DHT22;29301;47.620;19.560;2022-09-14T02:41:17;14.40;96.00
43697;DHT22;29301;47.620;19.560;2022-09-14T02:49:32;14.60;95.90
43697;DHT22;29301;47.620;19.560;2022-09-14T02:52:10;14.70;95.40
43697;DHT22;29301;47.620;19.560;2022-09-14T02:57:29;14.60;94.90
43697;DHT22;29301;47.620;19.560;2022-09-14T02:59:55;14.10;95.90
43697;DHT22;29301;47.620;19.560;2022-09-14T03:02:21;13.80;97.50
43697;DHT22;29301;47.620;19.560;2022-09-14T03:04:47;13.60;98.30
43697;DHT22;29301;47.620;19.560;2022-09-14T03:07:12;13.70;98.70
43697;DHT22;29301;47.620;19.560;2022-09-14T03:09:38;13.80;98.60
43697;DHT22;29301;47.620;19.560;2022-09-14T03:12:04;14.00;98.20
43697;DHT22;29301;47.620;19.560;2022-09-14T03:14:30;14.10;97.70
43697;DHT22;29301;47.620;19.560;2022-09-14T03:16:56;14.20;97.10
43697;DHT22;29301;47.620;19.560;2022-09-14T03:19:21;14.30;96.50
43697;DHT22;29301;47.620;19.560;2022-09-14T03:21:47;14.20;96.30
43697;DHT22;29301;47.620;19.560;2022-09-14T03:24:13;14.20;96.40
43697;DHT22;29301;47.620;19.560;2022-09-14T03:26:38;14.20;96.40
43697;DHT22;29301;47.620;19.560;2022-09-14T03:29:05;14.20;96.50
43697;DHT22;29301;47.620;19.560;2022-09-14T03:31:32;14.20;96.60
43697;DHT22;29301;47.620;19.560;2022-09-14T03:33:59;14.10;96.80
43697;DHT22;29301;47.620;19.560;2022-09-14T03:36:26;14.10;96.80
43697;DHT22;29301;47.620;19.560;2022-09-14T03:38:55;14.10;96.80
43697;DHT22;29301;47.620;19.560;2022-09-14T03:41:22;14.00;97.00
43697;DHT22;29301;47.620;19.560;2022-09-14T03:43:48;14.00;97.30
43697;DHT22;29301;47.620;19.560;2022-09-14T03:46:19;13.80;97.80
43697;DHT22;29301;47.620;19.560;2022-09-14T03:48:45;13.90;98.10
43697;DHT22;29301;47.620;19.560;2022-09-14T03:51:12;14.00;97.80
43697;DHT22;29301;47.620;19.560;2022-09-14T03:53:39;14.10;97.50
43697;DHT22;29301;47.620;19.560;2022-09-14T03:56:08;14.10;97.10
43697;DHT22;29301;47.620;19.560;2022-09-14T03:58:34;14.10;97.30
43697;DHT22;29301;47.620;19.560;2022-09-14T04:01:09;14.10;97.20
43697;DHT22;29301;47.620;19.560;2022-09-14T04:03:36;14.20;97.10
43697;DHT22;29301;47.620;19.560;2022-09-14T04:06:03;14.20;97.50
43697;DHT22;29301;47.620;19.560;2022-09-14T04:08:31;14.10;97.80
43697;DHT22;29301;47.620;19.560;2022-09-14T04:10:56;14.10;97.90
43697;DHT22;29301;47.620;19.560;2022-09-14T04:13:22;14.20;98.10
43697;DHT22;29301;47.620;19.560;2022-09-14T04:15:58;14.30;97.60
43697;DHT22;29301;47.620;19.560;2022-09-14T04:18:24;14.40;97.80
43697;DHT22;29301;47.620;19.560;2022-09-14T04:20:57;14.40;97.90
43697;DHT22;29301;47.620;19.560;2022-09-14T04:23:23;14.40;98.00
43697;DHT22;29301;47.620;19.560;2022-09-14T04:25:50;14.40;98.00
43697;DHT22;29301;47.620;19.560;2022-09-14T04:28:16;14.40;97.70
43697;DHT22;29301;47.620;19.560;2022-09-14T04:30:42;14.50;97.70
43697;DHT22;29301;47.620;19.560;2022-09-14T04:33:07;14.20;98.10
43697;DHT22;29301;47.620;19.560;2022-09-14T04:35:33;14.00;99.10
43697;DHT22;29301;47.620;19.560;2022-09-14T04:37:59;13.80;99.90
43697;DHT22;29301;47.620;19.560;2022-09-14T04:40:24;13.90;99.90
43697;DHT22;29301;47.620;19.560;2022-09-14T04:42:53;14.00;99.90
43697;DHT22;29301;47.620;19.560;2022-09-14T04:45:19;13.90;99.90
43697;DHT22;29301;47.620;19.560;2022-09-14T04:47:45;13.60;99.90
43697;DHT22;29301;47.620;19.560;2022-09-14T04:50:11;13.60;99.90
43697;DHT22;29301;47.620;19.560;2022-09-14T04:52:37;13.60;99.90
43697;DHT22;29301;47.620;19.560;2022-09-14T04:55:02;13.60;99.90
43697;DHT22;29301;47.620;19.560;2022-09-14T04:57:28;13.50;99.90
43697;DHT22;29301;47.620;19.560;2022-09-14T04:59:54;13.60;99.90
43697;DHT22;29301;47.620;19.560;2022-09-14T05:02:19;13.60;99.90
43697;DHT22;29301;47.620;19.560;2022-09-14T05:04:45;13.70;99.90
43697;DHT22;29301;47.620;19.560;2022-09-14T05:07:11;13.80;99.90
43697;DHT22;29301;47.620;19.560;2022-09-14T05:09:36;14.00;99.90
43697;DHT22;29301;47.620;19.560;2022-09-14T05:12:02;14.10;99.90
43697;DHT22;29301;47.620;19.560;2022-09-14T05:14:28;14.20;99.90
43697;DHT22;29301;47.620;19.560;2022-09-14T05:16:53;14.10;99.90
43697;DHT22;29301;47.620;19.560;2022-09-14T05:19:20;14.10;99.90
43697;DHT22;29301;47.620;19.560;2022-09-14T05:21:46;14.00;99.90
43697;DHT22;29301;47.620;19.560;2022-09-14T05:24:14;14.00;99.90
43697;DHT22;29301;47.620;19.560;2022-09-14T05:26:41;14.20;99.90
43697;DHT22;29301;47.620;19.560;2022-09-14T05:29:12;14.40;99.90
43697;DHT22;29301;47.620;19.560;2022-09-14T05:31:38;14.40;99.90
43697;DHT22;29301;47.620;19.560;2022-09-14T05:34:04;14.50;99.90
43697;DHT22;29301;47.620;19.560;2022-09-14T05:36:29;14.50;99.90
43697;DHT22;29301;47.620;19.560;2022-09-14T05:38:55;14.50;99.90
43697;DHT22;29301;47.620;19.560;2022-09-14T05:41:25;14.60;99.90
43697;DHT22;29301;47.620;19.560;2022-09-14T05:43:51;14.70;99.90
43697;DHT22;29301;47.620;19.560;2022-09-14T05:46:17;14.70;99.50
43697;DHT22;29301;47.620;19.560;2022-09-14T05:48:47;14.60;99.00
43697;DHT22;29301;47.620;19.560;2022-09-14T05:51:18;14.60;99.50
43697;DHT22;29301;47.620;19.560;2022-09-14T05:53:51;14.50;99.90
43697;DHT22;29301;47.620;19.560;2022-09-14T05:56:18;14.50;99.90
43697;DHT22;29301;47.620;19.560;2022-09-14T05:58:44;14.50;99.90
43697;DHT22;29301;47.620;19.560;2022-09-14T06:01:11;14.30;99.90
43697;DHT22;29301;47.620;19.560;2022-09-14T06:03:37;14.20;99.90
43697;DHT22;29301;47.620;19.560;2022-09-14T06:06:05;14.20;99.90
43697;DHT22;29301;47.620;19.560;2022-09-14T06:08:31;14.30;99.90
43697;DHT22;29301;47.620;19.560;2022-09-14T06:11:02;14.40;99.90
43697;DHT22;29301;47.620;19.560;2022-09-14T06:13:28;14.50;99.90
43697;DHT22;29301;47.620;19.560;2022-09-14T06:15:54;14.60;99.90
43697;DHT22;29301;47.620;19.560;2022-09-14T06:18:20;14.80;99.90
43697;DHT22;29301;47.620;19.560;2022-09-14T06:20:50;14.80;99.90
43697;DHT22;29301;47.620;19.560;2022-09-14T06:23:16;14.90;99.90
43697;DHT22;29301;47.620;19.560;2022-09-14T06:25:42;14.90;99.90
43697;DHT22;29301;47.620;19.560;2022-09-14T06:28:08;14.90;99.90
43697;DHT22;29301;47.620;19.560;2022-09-14T06:30:34;14.90;99.90
43697;DHT22;29301;47.620;19.560;2022-09-14T06:33:00;15.00;99.90
43697;DHT22;29301;47.620;19.560;2022-09-14T06:35:25;15.10;99.90
43697;DHT22;29301;47.620;19.560;2022-09-14T06:37:52;15.10;99.90
43697;DHT22;29301;47.620;19.560;2022-09-14T06:40:17;15.20;99.10
43697;DHT22;29301;47.620;19.560;2022-09-14T06:42:43;15.10;99.20
43697;DHT22;29301;47.620;19.560;2022-09-14T06:45:09;15.20;99.30
43697;DHT22;29301;47.620;19.560;2022-09-14T06:47:35;15.30;99.20
43697;DHT22;29301;47.620;19.560;2022-09-14T06:50:01;15.50;98.20
43697;DHT22;29301;47.620;19.560;2022-09-14T06:52:26;15.60;97.00
43697;DHT22;29301;47.620;19.560;2022-09-14T06:54:52;15.50;97.10
43697;DHT22;29301;47.620;19.560;2022-09-14T06:57:18;15.50;97.20
43697;DHT22;29301;47.620;19.560;2022-09-14T06:59:43;15.60;97.10
43697;DHT22;29301;47.620;19.560;2022-09-14T07:02:12;15.60;96.60
43697;DHT22;29301;47.620;19.560;2022-09-14T07:04:37;15.70;96.50
43697;DHT22;29301;47.620;19.560;2022-09-14T07:07:03;15.70;96.20
43697;DHT22;29301;47.620;19.560;2022-09-14T07:09:29;15.80;96.00
43697;DHT22;29301;47.620;19.560;2022-09-14T07:11:56;15.90;95.70
43697;DHT22;29301;47.620;19.560;2022-09-14T07:14:22;16.00;95.20
43697;DHT22;29301;47.620;19.560;2022-09-14T07:16:47;16.00;95.30
43697;DHT22;29301;47.620;19.560;2022-09-14T07:19:14;16.00;95.10
43697;DHT22;29301;47.620;19.560;2022-09-14T07:21:40;16.00;94.70
43697;DHT22;29301;47.620;19.560;2022-09-14T07:24:06;16.00;94.70
43697;DHT22;29301;47.620;19.560;2022-09-14T07:26:36;15.90;94.50
43697;DHT22;29301;47.620;19.560;2022-09-14T07:29:10;15.90;94.70
43697;DHT22;29301;47.620;19.560;2022-09-14T07:31:38;15.90;95.00
43697;DHT22;29301;47.620;19.560;2022-09-14T07:34:04;16.00;95.70
43697;DHT22;29301;47.620;19.560;2022-09-14T07:36:33;16.00;96.80
43697;DHT22;29301;47.620;19.560;2022-09-14T07:38:59;16.10;97.10
43697;DHT22;29301;47.620;19.560;2022-09-14T07:41:27;16.10;96.60
43697;DHT22;29301;47.620;19.560;2022-09-14T07:43:55;16.00;96.70
43697;DHT22;29301;47.620;19.560;2022-09-14T07:46:22;15.90;96.60
43697;DHT22;29301;47.620;19.560;2022-09-14T07:48:53;15.90;97.20
43697;DHT22;29301;47.620;19.560;2022-09-14T07:51:19;16.00;97.90
43697;DHT22;29301;47.620;19.560;2022-09-14T07:53:44;16.10;97.70
43697;DHT22;29301;47.620;19.560;2022-09-14T07:56:12;16.10;97.00
43697;DHT22;29301;47.620;19.560;2022-09-14T07:58:38;16.10;97.60
43697;DHT22;29301;47.620;19.560;2022-09-14T08:01:09;16.10;97.90
43697;DHT22;29301;47.620;19.560;2022-09-14T08:03:38;16.20;99.00
43697;DHT22;29301;47.620;19.560;2022-09-14T08:06:12;16.30;99.00
43697;DHT22;29301;47.620;19.560;2022-09-14T08:08:41;16.40;99.70
43697;DHT22;29301;47.620;19.560;2022-09-14T08:11:19;16.40;99.30
43697;DHT22;29301;47.620;19.560;2022-09-14T08:13:49;16.40;99.90
43697;DHT22;29301;47.620;19.560;2022-09-14T08:16:16;16.40;99.90
43697;DHT22;29301;47.620;19.560;2022-09-14T08:18:44;16.40;99.90
43697;DHT22;29301;47.620;19.560;2022-09-14T08:21:12;16.40;99.90
43697;DHT22;29301;47.620;19.560;2022-09-14T08:23:39;16.50;99.90
43697;DHT22;29301;47.620;19.560;2022-09-14T08:26:05;16.50;99.90
43697;DHT22;29301;47.620;19.560;2022-09-14T08:28:31;16.30;99.90
43697;DHT22;29301;47.620;19.560;2022-09-14T08:31:06;16.30;99.90
43697;DHT22;29301;47.620;19.560;2022-09-14T08:33:34;16.20;99.90
43697;DHT22;29301;47.620;19.560;2022-09-14T08:36:00;16.20;99.90
43697;DHT22;29301;47.620;19.560;2022-09-14T08:38:27;16.20;99.90
43697;DHT22;29301;47.620;19.560;2022-09-14T08:40:53;16.20;99.90
43697;DHT22;29301;47.620;19.560;2022-09-14T08:43:22;16.30;99.90
43697;DHT22;29301;47.620;19.560;2022-09-14T08:45:49;16.50;99.90
43697;DHT22;29301;47.620;19.560;2022-09-14T08:48:25;16.60;99.90
43697;DHT22;29301;47.620;19.560;2022-09-14T08:50:51;16.70;99.90
43697;DHT22;29301;47.620;19.560;2022-09-14T08:53:23;16.60;99.90
43697;DHT22;29301;47.620;19.560;2022-09-14T08:55:57;16.70;99.90
43697;DHT22;29301;47.620;19.560;2022-09-14T08:58:40;16.70;99.90
43697;DHT22;29301;47.620;19.560;2022-09-14T09:01:32;16.80;99.90
43697;DHT22;29301;47.620;19.560;2022-09-14T09:04:26;17.00;99.90
43697;DHT22;29301;47.620;19.560;2022-09-14T09:06:56;17.10;99.90
43697;DHT22;29301;47.620;19.560;2022-09-14T09:12:03;17.30;99.90
43697;DHT22;29301;47.620;19.560;2022-09-14T09:14:37;17.40;99.90
43697;DHT22;29301;47.620;19.560;2022-09-14T09:17:13;17.40;99.00
43697;DHT22;29301;47.620;19.560;2022-09-14T09:23:25;17.80;98.80
43697;DHT22;29301;47.620;19.560;2022-09-14T09:28:14;18.10;96.80
43697;DHT22;29301;47.620;19.560;2022-09-14T09:30:41;18.10;96.50
43697;DHT22;29301;47.620;19.560;2022-09-14T09:33:19;18.10;96.30
43697;DHT22;29301;47.620;19.560;2022-09-14T09:35:45;18.20;95.80
43697;DHT22;29301;47.620;19.560;2022-09-14T09:38:17;18.20;96.00
43697;DHT22;29301;47.620;19.560;2022-09-14T09:41:12;18.20;96.10
43697;DHT22;29301;47.620;19.560;2022-09-14T09:44:01;18.30;95.60
43697;DHT22;29301;47.620;19.560;2022-09-14T09:46:32;18.40;96.90
43697;DHT22;29301;47.620;19.560;2022-09-14T09:49:03;18.60;95.60
43697;DHT22;29301;47.620;19.560;2022-09-14T09:51:39;18.70;96.20
43697;DHT22;29301;47.620;19.560;2022-09-14T09:54:17;18.70;95.00
43697;DHT22;29301;47.620;19.560;2022-09-14T10:02:36;18.90;94.70
43697;DHT22;29301;47.620;19.560;2022-09-14T10:05:05;18.90;95.10
43697;DHT22;29301;47.620;19.560;2022-09-14T10:08:03;19.00;96.40
43697;DHT22;29301;47.620;19.560;2022-09-14T10:13:04;18.90;95.80
43697;DHT22;29301;47.620;19.560;2022-09-14T10:15:32;19.10;96.80
43697;DHT22;29301;47.620;19.560;2022-09-14T10:23:30;19.70;91.90
43697;DHT22;29301;47.620;19.560;2022-09-14T10:28:46;19.70;94.20
43697;DHT22;29301;47.620;19.560;2022-09-14T10:31:28;20.00;93.70
43697;DHT22;29301;47.620;19.560;2022-09-14T10:33:56;20.20;92.60
43697;DHT22;29301;47.620;19.560;2022-09-14T11:06:33;20.50;90.40
43697;DHT22;29301;47.620;19.560;2022-09-14T11:09:08;20.50;90.40
43697;DHT22;29301;47.620;19.560;2022-09-14T11:14:58;20.60;90.50
43697;DHT22;29301;47.620;19.560;2022-09-14T11:20:24;20.70;90.00
43697;DHT22;29301;47.620;19.560;2022-09-14T11:25:59;20.50;90.40
43697;DHT22;29301;47.620;19.560;2022-09-14T11:28:31;20.60;90.30
43697;DHT22;29301;47.620;19.560;2022-09-14T11:31:11;20.70;90.20
43697;DHT22;29301;47.620;19.560;2022-09-14T11:33:46;20.80;90.50
43697;DHT22;29301;47.620;19.560;2022-09-14T11:36:33;20.90;90.40
43697;DHT22;29301;47.620;19.560;2022-09-14T11:39:09;20.80;90.10
43697;DHT22;29301;47.620;19.560;2022-09-14T11:41:48;20.90;90.50
43697;DHT22;29301;47.620;19.560;2022-09-14T11:44:20;21.10;90.10
43697;DHT22;29301;47.620;19.560;2022-09-14T11:46:53;21.10;89.70
43697;DHT22;29301;47.620;19.560;2022-09-14T11:51:56;21.10;89.80
43697;DHT22;29301;47.620;19.560;2022-09-14T11:54:23;21.20;90.20
43697;DHT22;29301;47.620;19.560;2022-09-14T11:57:02;21.30;90.10
43697;DHT22;29301;47.620;19.560;2022-09-14T12:12:44;21.10;90.50
43697;DHT22;29301;47.620;19.560;2022-09-14T12:17:38;21.10;90.70
43697;DHT22;29301;47.620;19.560;2022-09-14T12:28:48;21.50;90.10
43697;DHT22;29301;47.620;19.560;2022-09-14T12:34:21;21.60;90.10
43697;DHT22;29301;47.620;19.560;2022-09-14T12:39:30;21.70;89.80
43697;DHT22;29301;47.620;19.560;2022-09-14T12:42:23;21.80;88.80
43697;DHT22;29301;47.620;19.560;2022-09-14T12:44:44;21.70;87.40
43697;DHT22;29301;47.620;19.560;2022-09-14T12:49:54;21.70;89.70
43697;DHT22;29301;47.620;19.560;2022-09-14T12:52:48;21.80;89.00
43697;DHT22;29301;47.620;19.560;2022-09-14T12:55:43;21.90;89.00
43697;DHT22;29301;47.620;19.560;2022-09-14T12:58:15;21.90;89.40
43697;DHT22;29301;47.620;19.560;2022-09-14T13:03:45;22.00;89.70
43697;DHT22;29301;47.620;19.560;2022-09-14T13:06:12;22.10;89.80
43697;DHT22;29301;47.620;19.560;2022-09-14T13:08:43;22.30;89.30
43697;DHT22;29301;47.620;19.560;2022-09-14T13:11:09;22.30;87.60
43697;DHT22;29301;47.620;19.560;2022-09-14T13:13:42;22.30;87.10
43697;DHT22;29301;47.620;19.560;2022-09-14T13:16:14;22.20;87.30
43697;DHT22;29301;47.620;19.560;2022-09-14T13:18:41;22.30;89.30
43697;DHT22;29301;47.620;19.560;2022-09-14T13:21:17;22.30;89.20
43697;DHT22;29301;47.620;19.560;2022-09-14T13:23:43;22.50;87.60
43697;DHT22;29301;47.620;19.560;2022-09-14T13:26:18;22.60;87.40
43697;DHT22;29301;47.620;19.560;2022-09-14T13:28:46;22.70;86.00
43697;DHT22;29301;47.620;19.560;2022-09-14T13:31:17;22.80;85.90
43697;DHT22;29301;47.620;19.560;2022-09-14T13:33:48;22.90;85.30
43697;DHT22;29301;47.620;19.560;2022-09-14T13:36:41;22.90;85.20
43697;DHT22;29301;47.620;19.560;2022-09-14T13:39:23;23.00;85.80
43697;DHT22;29301;47.620;19.560;2022-09-14T13:41:51;23.00;85.00
43697;DHT22;29301;47.620;19.560;2022-09-14T13:44:17;23.00;85.30
43697;DHT22;29301;47.620;19.560;2022-09-14T13:46:43;23.00;85.10
43697;DHT22;29301;47.620;19.560;2022-09-14T13:49:11;23.10;85.90
43697;DHT22;29301;47.620;19.560;2022-09-14T13:51:37;23.10;84.20
43697;DHT22;29301;47.620;19.560;2022-09-14T13:54:27;23.10;84.50
43697;DHT22;29301;47.620;19.560;2022-09-14T13:57:17;23.10;86.00
43697;DHT22;29301;47.620;19.560;2022-09-14T14:02:53;23.20;84.40
43697;DHT22;29301;47.620;19.560;2022-09-14T14:05:28;23.10;84.90
43697;DHT22;29301;47.620;19.560;2022-09-14T14:07:57;23.20;85.00
43697;DHT22;29301;47.620;19.560;2022-09-14T14:10:38;23.20;83.90
43697;DHT22;29301;47.620;19.560;2022-09-14T14:13:05;23.30;83.90
43697;DHT22;29301;47.620;19.560;2022-09-14T14:15:41;23.30;83.70
43697;DHT22;29301;47.620;19.560;2022-09-14T14:18:30;23.30;83.30
43697;DHT22;29301;47.620;19.560;2022-09-14T14:21:29;23.40;84.30
43697;DHT22;29301;47.620;19.560;2022-09-14T14:26:52;23.40;83.10
43697;DHT22;29301;47.620;19.560;2022-09-14T14:29:18;23.40;82.30
43697;DHT22;29301;47.620;19.560;2022-09-14T14:31:44;23.30;82.90
43697;DHT22;29301;47.620;19.560;2022-09-14T14:34:21;23.20;83.30
43697;DHT22;29301;47.620;19.560;2022-09-14T14:36:47;23.10;84.50
43697;DHT22;29301;47.620;19.560;2022-09-14T14:39:19;23.10;85.60
43697;DHT22;29301;47.620;19.560;2022-09-14T14:41:45;23.20;84.60
43697;DHT22;29301;47.620;19.560;2022-09-14T14:44:22;23.30;84.20
43697;DHT22;29301;47.620;19.560;2022-09-14T14:46:49;23.30;84.50
43697;DHT22;29301;47.620;19.560;2022-09-14T14:49:16;23.40;84.30
43697;DHT22;29301;47.620;19.560;2022-09-14T14:51:42;23.40;84.10
43697;DHT22;29301;47.620;19.560;2022-09-14T14:54:08;23.30;83.50
43697;DHT22;29301;47.620;19.560;2022-09-14T14:56:36;23.30;84.00
43697;DHT22;29301;47.620;19.560;2022-09-14T14:59:02;23.20;83.80
43697;DHT22;29301;47.620;19.560;2022-09-14T15:01:39;23.20;83.90
43697;DHT22;29301;47.620;19.560;2022-09-14T15:04:04;23.20;83.50
43697;DHT22;29301;47.620;19.560;2022-09-14T15:06:30;23.30;84.30
43697;DHT22;29301;47.620;19.560;2022-09-14T15:08:56;23.30;84.30
43697;DHT22;29301;47.620;19.560;2022-09-14T15:11:22;23.20;83.90
43697;DHT22;29301;47.620;19.560;2022-09-14T15:13:48;23.10;84.80
43697;DHT22;29301;47.620;19.560;2022-09-14T15:16:14;23.20;84.80
43697;DHT22;29301;47.620;19.560;2022-09-14T15:18:40;23.20;84.70
43697;DHT22;29301;47.620;19.560;2022-09-14T15:21:06;23.20;84.10
43697;DHT22;29301;47.620;19.560;2022-09-14T15:23:32;23.20;83.60
43697;DHT22;29301;47.620;19.560;2022-09-14T15:25:58;23.10;85.40
43697;DHT22;29301;47.620;19.560;2022-09-14T15:28:24;23.10;85.00
43697;DHT22;29301;47.620;19.560;2022-09-14T15:30:50;23.00;84.90
43697;DHT22;29301;47.620;19.560;2022-09-14T15:33:17;22.90;85.70
43697;DHT22;29301;47.620;19.560;2022-09-14T15:35:43;22.90;87.30
43697;DHT22;29301;47.620;19.560;2022-09-14T15:38:08;22.80;87.10
43697;DHT22;29301;47.620;19.560;2022-09-14T15:40:35;22.80;88.00
43697;DHT22;29301;47.620;19.560;2022-09-14T15:43:01;22.80;87.60
43697;DHT22;29301;47.620;19.560;2022-09-14T15:45:27;22.70;88.00
43697;DHT22;29301;47.620;19.560;2022-09-14T15:47:52;22.70;88.80
43697;DHT22;29301;47.620;19.560;2022-09-14T15:50:18;22.70;89.10
43697;DHT22;29301;47.620;19.560;2022-09-14T15:52:44;22.70;89.40
43697;DHT22;29301;47.620;19.560;2022-09-14T15:55:11;22.70;89.50
43697;DHT22;29301;47.620;19.560;2022-09-14T15:57:37;22.60;89.90
43697;DHT22;29301;47.620;19.560;2022-09-14T16:00:07;22.60;89.60
43697;DHT22;29301;47.620;19.560;2022-09-14T16:02:33;22.50;89.70
43697;DHT22;29301;47.620;19.560;2022-09-14T16:04:59;22.50;90.00
43697;DHT22;29301;47.620;19.560;2022-09-14T16:07:24;22.40;90.30
43697;DHT22;29301;47.620;19.560;2022-09-14T16:09:50;22.30;90.40
43697;DHT22;29301;47.620;19.560;2022-09-14T16:12:16;22.30;90.60
43697;DHT22;29301;47.620;19.560;2022-09-14T16:14:42;22.30;90.80
43697;DHT22;29301;47.620;19.560;2022-09-14T16:17:07;22.30;91.00
43697;DHT22;29301;47.620;19.560;2022-09-14T16:19:35;22.20;91.10
43697;DHT22;29301;47.620;19.560;2022-09-14T16:22:01;22.20;91.00
43697;DHT22;29301;47.620;19.560;2022-09-14T16:24:28;22.30;91.00
43697;DHT22;29301;47.620;19.560;2022-09-14T16:26:54;22.20;91.20
43697;DHT22;29301;47.620;19.560;2022-09-14T16:29:21;22.20;91.50
43697;DHT22;29301;47.620;19.560;2022-09-14T16:31:48;22.20;91.70
43697;DHT22;29301;47.620;19.560;2022-09-14T16:34:32;22.20;92.00
43697;DHT22;29301;47.620;19.560;2022-09-14T16:36:58;22.10;92.50
43697;DHT22;29301;47.620;19.560;2022-09-14T16:39:26;22.00;92.60
43697;DHT22;29301;47.620;19.560;2022-09-14T16:41:53;22.00;93.10
43697;DHT22;29301;47.620;19.560;2022-09-14T16:44:22;21.90;93.50
43697;DHT22;29301;47.620;19.560;2022-09-14T16:46:49;21.80;94.10
43697;DHT22;29301;47.620;19.560;2022-09-14T16:49:16;21.70;94.60
43697;DHT22;29301;47.620;19.560;2022-09-14T16:51:42;21.50;95.30
43697;DHT22;29301;47.620;19.560;2022-09-14T16:54:10;21.50;95.50
43697;DHT22;29301;47.620;19.560;2022-09-14T16:56:38;21.50;95.50
43697;DHT22;29301;47.620;19.560;2022-09-14T16:59:05;21.40;95.60
43697;DHT22;29301;47.620;19.560;2022-09-14T17:01:34;21.30;96.50
43697;DHT22;29301;47.620;19.560;2022-09-14T17:04:04;21.10;97.10
43697;DHT22;29301;47.620;19.560;2022-09-14T17:06:34;21.00;97.30
43697;DHT22;29301;47.620;19.560;2022-09-14T17:09:04;21.00;97.30
43697;DHT22;29301;47.620;19.560;2022-09-14T17:11:31;21.10;97.20
43697;DHT22;29301;47.620;19.560;2022-09-14T17:13:57;21.10;97.40
43697;DHT22;29301;47.620;19.560;2022-09-14T17:16:24;20.80;98.00
43697;DHT22;29301;47.620;19.560;2022-09-14T17:18:52;20.60;99.00
43697;DHT22;29301;47.620;19.560;2022-09-14T17:21:20;20.50;99.40
43697;DHT22;29301;47.620;19.560;2022-09-14T17:23:47;20.60;99.30
43697;DHT22;29301;47.620;19.560;2022-09-14T17:26:15;20.70;99.00
43697;DHT22;29301;47.620;19.560;2022-09-14T17:28:43;20.70;98.60
43697;DHT22;29301;47.620;19.560;2022-09-14T17:31:10;20.70;98.30
43697;DHT22;29301;47.620;19.560;2022-09-14T17:33:37;20.80;98.10
43697;DHT22;29301;47.620;19.560;2022-09-14T17:36:04;20.60;98.20
43697;DHT22;29301;47.620;19.560;2022-09-14T17:38:39;20.40;99.20
43697;DHT22;29301;47.620;19.560;2022-09-14T17:41:17;20.00;99.90
43697;DHT22;29301;47.620;19.560;2022-09-14T17:43:43;20.00;99.90